Portada
METAR-TAF:

METAR-TAF

Aeroports :

Zaqatala, Azerbaidjan

latitud: 41-33-44N, longitud: 46-40-02E, altitud: 330 m

Observació

L'informe es va fer fa 52 minuts, a les 18:00 UTC
Vent 4 kt del Sud
Temperatura 8°C
Humitat 87%
Pressió 1009 hPa
Visibilitat 10 km o més
Núvols disperses a una alçada de 2500 ft, Cumulonimbus.
Cel cobert a una alçada de 3000 ft
xàfecs de pluja

METAR: UBBY 291800Z 17004KT 9999 -SHRA SCT025CB OVC030 08/06 Q1009 R33/////// NOSIG RMK MT PT OBSC

Hora: 22:52 (18:52 UTC)

Pronòstic

L'informe es va fer fa 1 hora i 52 minuts, a les 17:00 UTC
Pronòstic vàlid del 29 a les 18 UTC al 30 a les 03 UTC
Vent 4 kt amb direcció variable
Visibilitat 10 km o més
Núvols disperses a una alçada de 2000 ft, Cumulonimbus.
Cel cobert a una alçada de 4500 ft
Temporalment
l' 29 a les 18 UTC al 29 a les 22 UTC
xàfecs de pluja

TAF: UBBY 291700Z 2918/3003 VRB04KT 9999 SCT020CB OVC045 TEMPO 2918/2922 -SHRA

Observacions i pronòstics meteorològics de més de 4000 aeroports (METAR i TAF).

Les estacions disponibles són els punts grocs i vermells al mapa.

Posi el ratolí al punt desitjat per veure el nom de l'estació.

Feu clic per veure les observacions i els pronòstics meteorològics.

Per canviar el mapa: feu clic els botons verds amb una creu de color negre per apropar; al botó verd amb un guió per allunyar la imatge; o en les fletxes verdes per a mapes adjacents.


METAR-TAF: